createdAt,value
2022-12-13T00:01:22.992Z,13.07
2022-12-13T00:03:52.164Z,13.32
2022-12-13T00:06:19.019Z,12.23
2022-12-13T00:08:45.992Z,12.95
2022-12-13T00:11:13.893Z,13.93
2022-12-13T00:13:42.112Z,14.75
2022-12-13T00:16:12.485Z,12.90
2022-12-13T00:18:39.582Z,13.15
2022-12-13T00:21:08.113Z,13.75
2022-12-13T00:23:35.739Z,14.13
2022-12-13T00:26:17.404Z,12.75
2022-12-13T00:28:44.571Z,14.38
2022-12-13T00:31:51.815Z,14.48
2022-12-13T00:33:59.129Z,13.40
2022-12-13T00:36:26.037Z,14.40
2022-12-13T00:39:00.431Z,13.90
2022-12-13T00:41:33.560Z,13.75
2022-12-13T00:44:01.065Z,14.20
2022-12-13T00:46:28.529Z,14.25
2022-12-13T00:48:57.801Z,13.45
2022-12-13T00:51:26.674Z,14.43
2022-12-13T00:53:53.521Z,15.95
2022-12-13T00:56:23.380Z,14.38
2022-12-13T00:58:52.263Z,13.93
2022-12-13T01:01:25.270Z,15.85
2022-12-13T01:03:54.594Z,16.38
2022-12-13T01:06:35.139Z,17.80
2022-12-13T01:09:02.567Z,16.55
2022-12-13T01:11:29.235Z,15.93
2022-12-13T01:13:55.902Z,14.60
2022-12-13T01:16:22.518Z,14.98
2022-12-13T01:18:49.226Z,16.27
2022-12-13T01:21:18.932Z,16.05
2022-12-13T01:23:45.873Z,16.50
2022-12-13T01:26:15.867Z,15.45
2022-12-13T01:28:43.326Z,15.38
2022-12-13T01:31:12.852Z,16.52
2022-12-13T01:33:40.277Z,16.15
2022-12-13T01:36:10.068Z,16.05
2022-12-13T01:38:37.998Z,16.08
2022-12-13T01:41:08.895Z,16.58
2022-12-13T01:43:44.751Z,15.95
2022-12-13T01:46:12.292Z,15.48
2022-12-13T01:48:50.313Z,16.38
2022-12-13T01:51:19.728Z,17.30
2022-12-13T01:53:49.081Z,14.90
2022-12-13T01:56:26.100Z,16.23
2022-12-13T01:58:54.966Z,16.33
2022-12-13T02:01:22.245Z,15.68
2022-12-13T02:03:48.891Z,16.30
2022-12-13T02:06:39.765Z,17.25
2022-12-13T02:09:07.825Z,15.02
2022-12-13T02:11:38.001Z,16.08
2022-12-13T02:14:05.516Z,16.35
2022-12-13T02:16:37.840Z,15.68
2022-12-13T02:19:30.931Z,15.95
2022-12-13T02:22:05.693Z,17.85
2022-12-13T02:24:51.057Z,17.00
2022-12-13T02:28:00.829Z,16.92
2022-12-13T02:30:37.163Z,16.73
2022-12-13T02:33:28.808Z,18.58
2022-12-13T02:36:08.702Z,16.77
2022-12-13T02:38:53.485Z,17.92
2022-12-13T02:41:49.988Z,17.58
2022-12-13T02:44:41.935Z,16.80
2022-12-13T02:47:21.715Z,17.60
2022-12-13T02:49:52.304Z,17.63
2022-12-13T02:52:22.903Z,17.33
2022-12-13T02:54:49.730Z,18.08
2022-12-13T02:57:37.137Z,16.58
2022-12-13T03:00:21.263Z,17.70
2022-12-13T03:03:12.533Z,18.08
2022-12-13T03:06:09.721Z,18.42
2022-12-13T03:08:42.351Z,18.60
2022-12-13T03:11:13.591Z,19.63
2022-12-13T03:14:04.940Z,19.85
2022-12-13T03:16:36.537Z,18.88
2022-12-13T03:19:06.725Z,17.63
2022-12-13T03:21:47.249Z,19.02
2022-12-13T03:24:17.256Z,19.77
2022-12-13T03:26:44.082Z,18.20
2022-12-13T03:29:10.744Z,17.90
2022-12-13T03:31:37.388Z,18.77
2022-12-13T03:34:03.999Z,17.90
2022-12-13T03:36:30.645Z,19.90
2022-12-13T03:38:57.333Z,18.60
2022-12-13T03:41:31.438Z,19.10
2022-12-13T03:44:04.848Z,18.90
2022-12-13T03:46:32.160Z,19.35
2022-12-13T03:48:58.802Z,18.67
2022-12-13T03:51:25.550Z,19.33
2022-12-13T03:53:52.118Z,19.80
2022-12-13T03:56:18.753Z,18.73
2022-12-13T03:58:45.445Z,18.90
2022-12-13T04:01:15.366Z,18.60
2022-12-13T04:03:43.952Z,19.30
2022-12-13T04:06:11.224Z,17.27
2022-12-13T04:08:38.799Z,16.92
2022-12-13T04:11:24.529Z,17.05
2022-12-13T04:13:52.335Z,18.40
2022-12-13T04:16:19.430Z,17.98
2022-12-13T04:18:46.021Z,16.42
2022-12-13T04:21:12.659Z,17.67
2022-12-13T04:23:39.292Z,17.05
2022-12-13T04:26:06.235Z,16.90
2022-12-13T04:28:32.884Z,17.13
2022-12-13T04:30:59.458Z,16.42
2022-12-13T04:33:26.084Z,16.15
2022-12-13T04:35:52.766Z,14.43
2022-12-13T04:38:19.995Z,15.55
2022-12-13T04:40:46.683Z,15.25
2022-12-13T04:43:13.287Z,14.63
2022-12-13T04:45:39.899Z,15.00
2022-12-13T04:48:06.634Z,14.52
2022-12-13T04:50:33.663Z,15.50
2022-12-13T04:53:00.387Z,15.93
2022-12-13T04:55:27.041Z,15.25
2022-12-13T04:57:53.718Z,15.63
2022-12-13T05:00:22.298Z,14.77
2022-12-13T05:02:49.110Z,14.90
2022-12-13T05:05:16.008Z,15.63
2022-12-13T05:07:43.157Z,15.60
2022-12-13T05:10:11.258Z,14.50
2022-12-13T05:12:37.891Z,15.90
2022-12-13T05:15:05.352Z,14.98
2022-12-13T05:17:32.028Z,15.30
2022-12-13T05:19:58.608Z,14.73
2022-12-13T05:22:25.440Z,15.32
2022-12-13T05:24:52.071Z,16.30
2022-12-13T05:27:23.697Z,14.18
2022-12-13T05:30:02.375Z,14.45
2022-12-13T05:32:43.142Z,14.77
2022-12-13T05:35:22.590Z,14.32
2022-12-13T05:37:55.054Z,15.98
2022-12-13T05:40:23.127Z,15.05
2022-12-13T05:42:50.118Z,15.30
2022-12-13T05:45:18.477Z,15.07
2022-12-13T05:47:45.963Z,13.98
2022-12-13T05:50:14.046Z,14.27
2022-12-13T05:52:40.679Z,14.48
2022-12-13T05:55:07.620Z,14.65
2022-12-13T05:57:34.319Z,15.23
2022-12-13T06:00:01.016Z,13.60
2022-12-13T06:02:27.878Z,12.88
2022-12-13T06:04:54.733Z,14.48
2022-12-13T06:07:21.281Z,13.57
2022-12-13T06:09:47.846Z,13.07
2022-12-13T06:12:30.967Z,12.48
2022-12-13T06:15:01.109Z,12.38
2022-12-13T06:17:45.413Z,12.68
2022-12-13T06:20:24.237Z,15.07
2022-12-13T06:22:51.941Z,13.60
2022-12-13T06:25:31.064Z,16.02
2022-12-13T06:28:00.753Z,14.10
2022-12-13T06:30:28.502Z,17.77
2022-12-13T06:32:55.255Z,17.98
2022-12-13T06:35:28.335Z,14.93
2022-12-13T06:37:55.828Z,15.98
2022-12-13T06:40:27.819Z,15.13
2022-12-13T06:42:54.433Z,14.52
2022-12-13T06:45:21.019Z,14.65
2022-12-13T06:47:47.630Z,14.82
2022-12-13T06:50:15.021Z,14.57
2022-12-13T06:52:41.590Z,14.55
2022-12-13T06:55:08.686Z,14.48
2022-12-13T06:57:35.358Z,14.32
2022-12-13T07:00:03.502Z,15.20
2022-12-13T07:02:30.407Z,13.57
2022-12-13T07:04:57.278Z,13.85
2022-12-13T07:07:25.828Z,13.63
2022-12-13T07:09:52.873Z,13.07
2022-12-13T07:12:20.973Z,13.85
2022-12-13T07:14:47.769Z,14.13
2022-12-13T07:17:33.924Z,14.10
2022-12-13T07:20:07.566Z,14.75
2022-12-13T07:22:36.869Z,14.27
2022-12-13T07:25:05.998Z,14.43
2022-12-13T07:27:34.373Z,16.13
2022-12-13T07:30:01.159Z,15.65
2022-12-13T07:32:28.196Z,17.25
2022-12-13T07:34:54.774Z,16.77
2022-12-13T07:37:29.573Z,16.67
2022-12-13T07:40:03.436Z,16.55
2022-12-13T07:42:31.238Z,18.08
2022-12-13T07:44:57.887Z,18.15
2022-12-13T07:47:29.811Z,16.45
2022-12-13T07:49:56.503Z,15.05
2022-12-13T07:52:24.332Z,16.50
2022-12-13T07:54:50.967Z,17.27
2022-12-13T07:57:17.615Z,17.58
2022-12-13T07:59:44.217Z,16.65
2022-12-13T08:02:13.306Z,17.58
2022-12-13T08:04:41.851Z,17.90
2022-12-13T08:07:09.744Z,17.77
2022-12-13T08:09:36.818Z,16.10
2022-12-13T08:12:05.178Z,16.88
2022-12-13T08:14:32.027Z,17.38
2022-12-13T08:16:58.702Z,18.05
2022-12-13T08:19:25.331Z,17.30
2022-12-13T08:21:58.272Z,15.55
2022-12-13T08:24:30.274Z,16.73
2022-12-13T08:27:02.006Z,16.65
2022-12-13T08:29:34.063Z,17.63
2022-12-13T08:32:10.456Z,18.88
2022-12-13T08:34:37.658Z,16.48
2022-12-13T08:37:05.054Z,18.30
2022-12-13T08:39:36.695Z,18.08
2022-12-13T08:42:15.214Z,16.83
2022-12-13T08:44:48.382Z,16.95
2022-12-13T08:47:22.982Z,17.58
2022-12-13T08:49:55.779Z,16.55
2022-12-13T08:52:29.502Z,17.27
2022-12-13T08:54:56.207Z,15.50
2022-12-13T08:57:22.804Z,14.88
2022-12-13T08:59:49.435Z,16.63
2022-12-13T09:02:16.657Z,16.88
2022-12-13T09:04:43.658Z,15.70
2022-12-13T09:07:10.242Z,16.08
2022-12-13T09:09:37.420Z,16.23
2022-12-13T09:12:10.659Z,15.63
2022-12-13T09:14:45.370Z,15.35
2022-12-13T09:17:24.138Z,15.27
2022-12-13T09:19:51.248Z,13.77
2022-12-13T09:22:32.812Z,12.88
2022-12-13T09:25:02.857Z,14.25
2022-12-13T09:27:30.903Z,13.68
2022-12-13T09:30:08.042Z,14.82
2022-12-13T09:32:34.660Z,14.82
2022-12-13T09:35:01.257Z,13.43
2022-12-13T09:37:29.624Z,14.80
2022-12-13T09:39:56.231Z,14.52
2022-12-13T09:42:30.458Z,13.25
2022-12-13T09:45:06.101Z,15.23
2022-12-13T09:47:49.739Z,13.77
2022-12-13T09:50:24.933Z,12.77
2022-12-13T09:52:52.422Z,14.77
2022-12-13T09:55:38.586Z,12.98
2022-12-13T09:58:22.399Z,13.23
2022-12-13T10:00:53.186Z,12.48
2022-12-13T10:03:22.495Z,13.98
2022-12-13T10:05:58.972Z,15.35
2022-12-13T10:08:40.489Z,12.80
2022-12-13T10:11:07.080Z,15.25
2022-12-13T10:13:55.038Z,15.70
2022-12-13T10:16:37.639Z,15.57
2022-12-13T10:19:29.268Z,14.63
2022-12-13T10:22:01.212Z,15.18
2022-12-13T10:24:46.725Z,15.73
2022-12-13T10:27:16.832Z,14.88
2022-12-13T10:30:07.597Z,14.82
2022-12-13T10:33:03.686Z,14.90
2022-12-13T10:35:41.501Z,15.57
2022-12-13T10:38:08.214Z,15.13
2022-12-13T10:40:37.502Z,15.57
2022-12-13T10:43:26.265Z,16.17
2022-12-13T10:45:56.615Z,15.57
2022-12-13T10:48:45.334Z,14.90
2022-12-13T10:51:18.661Z,14.57
2022-12-13T10:53:58.246Z,15.02
2022-12-13T10:56:36.316Z,15.18
2022-12-13T10:59:25.532Z,15.65
2022-12-13T11:01:52.622Z,14.68
2022-12-13T11:04:29.755Z,14.00
2022-12-13T11:06:59.663Z,14.27
2022-12-13T11:09:38.893Z,14.00
2022-12-13T11:12:14.474Z,14.85
2022-12-13T11:15:08.926Z,14.00
2022-12-13T11:17:45.546Z,14.93
2022-12-13T11:20:29.997Z,13.93
2022-12-13T11:23:19.506Z,14.05
2022-12-13T11:25:46.317Z,15.13
2022-12-13T11:28:50.485Z,16.13
2022-12-13T11:31:55.867Z,15.10
2022-12-13T11:34:40.705Z,16.60
2022-12-13T11:37:49.243Z,15.00
2022-12-13T11:40:32.208Z,15.60
2022-12-13T11:43:12.032Z,16.30
2022-12-13T11:45:54.709Z,16.90
2022-12-13T11:48:39.773Z,15.18
2022-12-13T11:51:09.134Z,14.90
2022-12-13T11:53:49.704Z,14.70
2022-12-13T11:56:25.785Z,16.08
2022-12-13T11:59:27.499Z,14.98
2022-12-13T12:02:18.116Z,15.30
2022-12-13T12:04:53.608Z,14.57
2022-12-13T12:08:12.780Z,14.93
2022-12-13T12:10:49.398Z,14.23
2022-12-13T12:13:24.861Z,13.32
2022-12-13T12:16:18.078Z,13.30
2022-12-13T12:18:44.813Z,13.05
2022-12-13T12:21:20.328Z,13.38
2022-12-13T12:24:10.159Z,12.95
2022-12-13T12:27:11.115Z,12.85
2022-12-13T12:29:50.631Z,12.48
2022-12-13T12:32:42.588Z,12.18
2022-12-13T12:35:17.122Z,15.20
2022-12-13T12:37:55.314Z,13.98
2022-12-13T12:40:52.219Z,16.02
2022-12-13T12:43:21.848Z,14.88
2022-12-13T12:46:08.390Z,16.48
2022-12-13T12:49:06.286Z,16.02
2022-12-13T12:51:38.852Z,17.25
2022-12-13T12:54:18.178Z,16.85
2022-12-13T12:56:59.394Z,16.58
2022-12-13T12:59:40.039Z,16.20
2022-12-13T13:02:28.820Z,17.35
2022-12-13T13:05:02.961Z,15.93
2022-12-13T13:07:39.600Z,16.77
2022-12-13T13:10:16.456Z,16.98
2022-12-13T13:12:53.411Z,15.93
2022-12-13T13:15:39.397Z,15.70
2022-12-13T13:18:45.732Z,15.48
2022-12-13T13:21:34.704Z,16.17
2022-12-13T13:24:01.306Z,14.57
2022-12-13T13:26:37.975Z,15.77
2022-12-13T13:29:27.271Z,16.90
2022-12-13T13:32:06.923Z,17.15
2022-12-13T13:34:40.636Z,16.45
2022-12-13T13:40:08.395Z,15.07
2022-12-13T13:42:55.078Z,15.38
2022-12-13T13:45:27.446Z,14.02
2022-12-13T13:48:14.509Z,14.48
2022-12-13T13:51:15.759Z,15.02
2022-12-13T13:54:20.793Z,15.60
2022-12-13T13:57:12.135Z,15.60
2022-12-13T14:00:17.190Z,16.70
2022-12-13T14:03:35.253Z,17.90
2022-12-13T14:06:20.870Z,17.20
2022-12-13T14:09:04.498Z,15.48
2022-12-13T14:11:43.153Z,17.08
2022-12-13T14:14:30.958Z,16.73
2022-12-13T14:17:46.520Z,16.33
2022-12-13T14:20:31.487Z,16.45
2022-12-13T14:23:03.909Z,17.13
2022-12-13T14:25:40.259Z,15.70
2022-12-13T14:28:52.971Z,14.68
2022-12-13T14:31:31.301Z,16.88
2022-12-13T14:34:00.593Z,16.83
2022-12-13T14:36:32.144Z,16.42
2022-12-13T14:39:24.663Z,16.08
2022-12-13T14:41:57.023Z,18.88
2022-12-13T14:44:28.167Z,17.63
2022-12-13T14:47:02.988Z,17.58
2022-12-13T14:49:32.500Z,19.85
2022-12-13T14:52:27.571Z,17.13
2022-12-13T14:55:04.633Z,16.95
2022-12-13T14:57:33.120Z,17.23
2022-12-13T15:00:01.797Z,18.20
2022-12-13T15:02:32.793Z,19.35
2022-12-13T15:05:01.681Z,18.60
2022-12-13T15:07:41.568Z,19.08
2022-12-13T15:10:40.071Z,20.05
2022-12-13T15:13:07.144Z,19.63
2022-12-13T15:15:37.855Z,19.45
2022-12-13T15:18:20.445Z,19.98
2022-12-13T15:20:50.115Z,20.02
2022-12-13T15:23:22.838Z,19.90
2022-12-13T15:26:28.478Z,15.15
2022-12-13T15:29:09.967Z,20.17
2022-12-13T15:31:38.352Z,19.10
2022-12-13T15:34:28.518Z,21.13
2022-12-13T15:37:28.453Z,22.17
2022-12-13T15:39:59.892Z,20.48
2022-12-13T15:42:32.899Z,19.33
2022-12-13T15:45:06.014Z,22.77
2022-12-13T15:47:33.480Z,21.65
2022-12-13T15:50:02.735Z,20.20
2022-12-13T15:52:32.801Z,21.35
2022-12-13T15:55:07.655Z,20.45
2022-12-13T15:57:36.798Z,19.98
2022-12-13T16:00:16.810Z,20.75
2022-12-13T16:02:53.758Z,19.88
2022-12-13T16:05:38.620Z,20.67
2022-12-13T16:08:13.892Z,19.52
2022-12-13T16:10:47.136Z,18.27
2022-12-13T16:13:26.352Z,20.50
2022-12-13T16:16:00.278Z,20.15
2022-12-13T16:18:44.902Z,20.52
2022-12-13T16:21:11.700Z,21.00
2022-12-13T16:23:38.345Z,19.95
2022-12-13T16:26:09.037Z,19.02
2022-12-13T16:28:36.294Z,20.73
2022-12-13T16:31:23.787Z,20.17
2022-12-13T16:33:50.510Z,20.67
2022-12-13T16:36:17.875Z,21.50
2022-12-13T16:38:44.515Z,20.83
2022-12-13T16:41:11.274Z,20.48
2022-12-13T16:43:44.705Z,20.80
2022-12-13T16:48:58.848Z,20.10
2022-12-13T16:51:25.540Z,21.13
2022-12-13T16:53:52.130Z,19.70
2022-12-13T16:56:21.677Z,20.15
2022-12-13T16:58:50.566Z,21.67
2022-12-13T17:01:20.255Z,20.17
2022-12-13T17:03:47.493Z,22.40
2022-12-13T17:06:16.706Z,21.10
2022-12-13T17:08:43.324Z,21.90
2022-12-13T17:11:14.681Z,23.38
2022-12-13T17:13:44.635Z,23.25
2022-12-13T17:16:11.388Z,21.83
2022-12-13T17:18:41.798Z,21.67
2022-12-13T17:21:09.513Z,24.35
2022-12-13T17:23:36.453Z,23.70
2022-12-13T17:26:07.512Z,23.48
2022-12-13T17:28:34.364Z,24.65
2022-12-13T17:31:13.283Z,24.83
2022-12-13T17:33:40.851Z,24.85
2022-12-13T17:36:10.071Z,25.50
2022-12-13T17:38:37.540Z,23.70
2022-12-13T17:41:04.382Z,24.67
2022-12-13T17:43:34.939Z,24.45
2022-12-13T17:46:08.291Z,24.05
2022-12-13T17:48:40.219Z,24.80
2022-12-13T17:51:08.710Z,25.13
2022-12-13T17:53:35.938Z,25.20
2022-12-13T17:56:05.758Z,24.50
2022-12-13T17:58:32.512Z,25.67
2022-12-13T18:00:59.670Z,25.60
2022-12-13T18:03:26.751Z,24.95
2022-12-13T18:05:59.857Z,25.88
2022-12-13T18:08:27.502Z,21.23
2022-12-13T18:11:30.758Z,25.27
2022-12-13T18:13:46.306Z,24.98
2022-12-13T18:16:15.467Z,26.17
2022-12-13T18:18:42.703Z,25.60
2022-12-13T18:21:21.741Z,25.65
2022-12-13T18:23:54.962Z,23.98
2022-12-13T18:26:23.144Z,23.40
2022-12-13T18:28:49.755Z,24.63
2022-12-13T18:31:22.663Z,23.38
2022-12-13T18:33:50.516Z,25.20
2022-12-13T18:36:17.945Z,25.40
2022-12-13T18:38:44.604Z,24.45
2022-12-13T18:41:20.128Z,23.83
2022-12-13T18:43:47.528Z,23.02
2022-12-13T18:46:15.632Z,24.98
2022-12-13T18:48:42.355Z,25.10
2022-12-13T18:51:10.314Z,22.02
2022-12-13T18:53:38.222Z,24.17
2022-12-13T18:56:18.308Z,23.58
2022-12-13T18:58:47.971Z,23.08
2022-12-13T19:01:15.886Z,22.75
2022-12-13T19:03:44.953Z,21.63
2022-12-13T19:06:19.453Z,21.40
2022-12-13T19:08:51.450Z,23.98
2022-12-13T19:11:19.150Z,21.58
2022-12-13T19:13:46.325Z,21.83
2022-12-13T19:16:15.903Z,20.92
2022-12-13T19:18:42.693Z,20.73
2022-12-13T19:21:12.974Z,21.42
2022-12-13T19:23:40.976Z,21.08
2022-12-13T19:26:09.659Z,20.40
2022-12-13T19:28:36.566Z,19.30
2022-12-13T19:31:04.838Z,21.08
2022-12-13T19:33:31.784Z,20.70
2022-12-13T19:35:58.676Z,20.45
2022-12-13T19:38:25.317Z,20.35
2022-12-13T19:40:51.962Z,18.60
2022-12-13T19:43:20.657Z,18.67
2022-12-13T19:45:47.765Z,18.60
2022-12-13T19:48:14.745Z,16.98
2022-12-13T19:50:42.091Z,18.33
2022-12-13T19:53:08.880Z,19.27
2022-12-13T19:55:35.529Z,17.88
2022-12-13T19:58:02.440Z,17.08
2022-12-13T20:00:29.119Z,17.35
2022-12-13T20:02:56.204Z,18.27
2022-12-13T20:05:22.862Z,17.05
2022-12-13T20:07:51.042Z,17.48
2022-12-13T20:10:17.702Z,16.77
2022-12-13T20:12:44.291Z,18.45
2022-12-13T20:15:11.044Z,17.52
2022-12-13T20:17:37.676Z,17.58
2022-12-13T20:20:05.234Z,18.52
2022-12-13T20:22:33.295Z,18.55
2022-12-13T20:25:00.073Z,19.80
2022-12-13T20:27:26.972Z,17.58
2022-12-13T20:29:53.760Z,16.40
2022-12-13T20:32:21.274Z,16.13
2022-12-13T20:34:53.183Z,18.65
2022-12-13T20:37:22.082Z,17.83
2022-12-13T20:39:49.111Z,18.45
2022-12-13T20:42:15.759Z,18.13
2022-12-13T20:44:42.393Z,15.85
2022-12-13T20:47:09.190Z,17.95
2022-12-13T20:49:35.809Z,19.92
2022-12-13T20:52:02.758Z,18.73
2022-12-13T20:54:29.421Z,17.25
2022-12-13T20:56:58.088Z,16.33
2022-12-13T20:59:24.694Z,16.35
2022-12-13T21:01:51.342Z,16.73
2022-12-13T21:04:18.072Z,17.42
2022-12-13T21:06:44.668Z,17.48
2022-12-13T21:09:11.833Z,18.35
2022-12-13T21:11:42.712Z,17.15
2022-12-13T21:14:27.314Z,17.13
2022-12-13T21:16:55.288Z,17.30
2022-12-13T21:19:24.439Z,17.67
2022-12-13T21:21:51.855Z,17.20
2022-12-13T21:24:19.974Z,16.85
2022-12-13T21:26:47.400Z,17.35
2022-12-13T21:29:16.044Z,16.83
2022-12-13T21:31:44.742Z,17.60
2022-12-13T21:34:16.904Z,17.75
2022-12-13T21:36:45.738Z,15.95
2022-12-13T21:39:14.104Z,16.80
2022-12-13T21:41:41.798Z,17.33
2022-12-13T21:44:10.924Z,16.70
2022-12-13T21:49:25.182Z,18.75
2022-12-13T21:51:51.789Z,16.92
2022-12-13T21:54:18.648Z,17.25
2022-12-13T21:57:04.245Z,18.77
2022-12-13T21:59:31.658Z,17.55
2022-12-13T22:02:11.955Z,17.10
2022-12-13T22:04:41.016Z,16.23
2022-12-13T22:07:08.739Z,17.05
2022-12-13T22:09:36.418Z,17.85
2022-12-13T22:12:16.802Z,17.92
2022-12-13T22:14:43.522Z,17.90
2022-12-13T22:17:10.216Z,17.85
2022-12-13T22:19:36.834Z,16.98
2022-12-13T22:22:03.510Z,18.30
2022-12-13T22:24:30.113Z,17.85
2022-12-13T22:26:56.738Z,18.65
2022-12-13T22:29:23.309Z,16.83
2022-12-13T22:31:49.927Z,19.13
2022-12-13T22:34:16.827Z,18.60
2022-12-13T22:36:43.448Z,18.08
2022-12-13T22:39:18.173Z,17.83
2022-12-13T22:41:45.842Z,17.30
2022-12-13T22:44:13.928Z,18.13
2022-12-13T22:46:41.061Z,17.90
2022-12-13T22:49:08.327Z,18.83
2022-12-13T22:51:35.403Z,17.80
2022-12-13T22:54:02.281Z,17.50
2022-12-13T22:56:28.949Z,18.13
2022-12-13T22:58:57.451Z,18.13
2022-12-13T23:01:26.771Z,18.40
2022-12-13T23:03:53.589Z,17.58
2022-12-13T23:06:23.346Z,18.58
2022-12-13T23:08:52.717Z,18.58
2022-12-13T23:11:39.098Z,18.23
2022-12-13T23:14:08.855Z,18.67
2022-12-13T23:16:36.699Z,18.80
2022-12-13T23:19:39.160Z,19.90
2022-12-13T23:21:52.677Z,19.67
2022-12-13T23:24:20.093Z,19.35
2022-12-13T23:26:46.919Z,19.70
2022-12-13T23:29:13.580Z,19.60
2022-12-13T23:31:42.347Z,18.75
2022-12-13T23:34:15.339Z,18.83
2022-12-13T23:36:42.047Z,17.70
2022-12-13T23:39:09.213Z,19.42
2022-12-13T23:41:36.231Z,18.63
2022-12-13T23:44:04.237Z,19.95
2022-12-13T23:46:34.694Z,19.02
2022-12-13T23:49:04.436Z,18.20
2022-12-13T23:51:31.246Z,20.50
2022-12-13T23:53:57.822Z,19.30
2022-12-13T23:56:24.712Z,18.92
2022-12-13T23:58:51.408Z,19.67
